Time;durP1;ratioP1;P1;durP2;ratioP2;P2;SDS_P1;SDS_P2;PMS_P1;PMS_P2;Temp;Humidity;BMP_temperature;BMP_pressure;BME280_temperature;BME280_humidity;BME280_pressure;Samples;Min_cycle;Max_cycle;Signal;HPM_P1;HPM_P2
2022/06/23 00:00:31;;;;;;;11.90;6.83;;;20.90;96.70;;;;;;5054333;28;20929;-52
2022/06/23 00:02:59;;;;;;;13.80;6.67;;;20.90;96.90;;;;;;5059643;28;21031;-52
2022/06/23 00:05:29;;;;;;;13.87;7.20;;;20.90;97.20;;;;;;5065972;28;20763;-52
2022/06/23 00:08:00;;;;;;;7.30;6.27;;;20.80;97.20;;;;;;5050270;28;20490;-52
2022/06/23 00:10:34;;;;;;;8.20;6.30;;;20.60;96.90;;;;;;5054274;28;20490;-52
2022/06/23 00:13:03;;;;;;;12.50;7.70;;;20.50;97.30;;;;;;5038692;28;20471;-52
2022/06/23 00:15:37;;;;;;;14.13;6.83;;;20.30;97.70;;;;;;5049587;28;21038;-52
2022/06/23 00:18:07;;;;;;;7.80;6.07;;;20.30;97.50;;;;;;5040820;28;20485;-52
2022/06/23 00:20:40;;;;;;;13.20;6.90;;;20.30;97.20;;;;;;5056838;28;20484;-52
2022/06/23 00:23:14;;;;;;;15.27;7.30;;;20.30;96.80;;;;;;5054366;28;20483;-52
2022/06/23 00:25:46;;;;;;;11.43;7.40;;;20.30;96.60;;;;;;5051520;28;20933;-51
2022/06/23 00:28:17;;;;;;;9.37;6.40;;;20.10;97.20;;;;;;5050083;28;20481;-52
2022/06/23 00:30:45;;;;;;;9.93;5.80;;;20.10;97.00;;;;;;5051199;28;20485;-52
2022/06/23 00:33:17;;;;;;;6.77;6.13;;;19.90;97.00;;;;;;5049378;28;20489;-50
2022/06/23 00:35:45;;;;;;;9.63;6.63;;;19.70;97.30;;;;;;5050080;28;20474;-52
2022/06/23 00:38:20;;;;;;;8.43;6.93;;;19.50;97.80;;;;;;5049279;28;20481;-52
2022/06/23 00:40:48;;;;;;;15.43;6.60;;;19.50;98.40;;;;;;5055816;28;21136;-51
2022/06/23 00:43:14;;;;;;;10.23;7.03;;;19.40;98.60;;;;;;5060992;28;20443;-52
2022/06/23 00:45:46;;;;;;;8.00;7.20;;;19.30;99.20;;;;;;5055735;28;21006;-52
2022/06/23 00:48:18;;;;;;;10.57;6.00;;;19.10;98.60;;;;;;5049091;28;20474;-52
2022/06/23 00:50:49;;;;;;;14.43;6.33;;;19.20;98.40;;;;;;5053045;28;20481;-51
2022/06/23 00:53:23;;;;;;;7.60;5.77;;;19.20;98.50;;;;;;5045767;28;20482;-51
2022/06/23 00:55:57;;;;;;;11.10;8.03;;;19.20;98.00;;;;;;5048469;28;20492;-51
2022/06/23 00:58:35;;;;;;;9.67;6.60;;;19.10;98.60;;;;;;5054409;28;20492;-52
2022/06/23 01:01:11;;;;;;;12.20;8.10;;;19.20;98.40;;;;;;5048734;28;20612;-51
2022/06/23 01:03:43;;;;;;;9.47;6.27;;;19.20;98.40;;;;;;5061924;28;20482;-51
2022/06/23 01:06:15;;;;;;;15.47;7.00;;;19.00;97.80;;;;;;5045072;28;20486;-52
2022/06/23 01:08:50;;;;;;;10.27;6.40;;;18.90;97.70;;;;;;5050511;28;20467;-52
2022/06/23 01:11:25;;;;;;;13.40;6.27;;;18.80;97.70;;;;;;5041053;28;20478;-52
2022/06/23 01:14:01;;;;;;;21.47;8.93;;;18.90;97.70;;;;;;5058862;28;20843;-51
2022/06/23 01:16:31;;;;;;;16.93;7.53;;;18.80;98.70;;;;;;5040812;28;20478;-51
2022/06/23 01:19:12;;;;;;;21.73;9.33;;;18.80;98.90;;;;;;5057088;28;20486;-52
2022/06/23 01:21:43;;;;;;;15.63;7.03;;;18.80;98.60;;;;;;5054552;28;20473;-52
2022/06/23 01:24:25;;;;;;;20.73;7.10;;;18.90;97.70;;;;;;5059525;28;20989;-52
2022/06/23 01:27:00;;;;;;;21.30;6.87;;;18.90;97.20;;;;;;5051936;28;21181;-52
2022/06/23 01:29:33;;;;;;;19.67;7.77;;;18.90;97.20;;;;;;5057297;28;20887;-52
2022/06/23 01:32:09;;;;;;;22.60;7.80;;;18.90;97.00;;;;;;5056226;28;20478;-52
2022/06/23 01:34:44;;;;;;;10.37;6.90;;;18.80;96.90;;;;;;5057334;28;20478;-52
2022/06/23 01:37:17;;;;;;;14.97;8.43;;;18.80;97.20;;;;;;5045084;28;20501;-51
2022/06/23 01:39:48;;;;;;;18.33;8.13;;;18.70;97.20;;;;;;5048456;28;20498;-52
2022/06/23 01:42:22;;;;;;;13.03;7.47;;;18.70;97.40;;;;;;5054601;28;20508;-52
2022/06/23 01:44:57;;;;;;;16.20;7.47;;;18.70;97.50;;;;;;5030343;28;20482;-52
2022/06/23 01:47:34;;;;;;;15.50;8.33;;;18.80;97.60;;;;;;5054438;28;20470;-52
2022/06/23 01:50:32;;;;;;;17.30;8.33;;;18.80;97.50;;;;;;5051782;28;20488;-52
2022/06/23 01:53:24;;;;;;;16.93;8.83;;;18.90;97.60;;;;;;5057331;28;20470;-50
2022/06/23 01:56:32;;;;;;;17.53;11.90;;;18.90;97.60;;;;;;5044243;28;20505;-50
2022/06/23 01:59:11;;;;;;;13.90;8.93;;;18.90;97.60;;;;;;5024260;28;20470;-50
2022/06/23 02:01:48;;;;;;;17.07;8.40;;;18.80;97.30;;;;;;5061181;28;20490;-50
2022/06/23 02:04:20;;;;;;;15.30;7.83;;;18.80;97.40;;;;;;5054525;28;20504;-50
2022/06/23 02:06:52;;;;;;;14.40;8.60;;;18.80;97.30;;;;;;5056228;28;20478;-50
2022/06/23 02:09:25;;;;;;;12.40;7.70;;;18.80;97.80;;;;;;5059418;28;20475;-50
2022/06/23 02:11:53;;;;;;;27.00;9.70;;;18.70;97.40;;;;;;5059632;28;20484;-50
2022/06/23 02:14:29;;;;;;;12.93;8.20;;;18.70;97.60;;;;;;5054438;28;20467;-50
2022/06/23 02:17:02;;;;;;;18.63;9.80;;;18.60;97.70;;;;;;5051499;28;20882;-50
2022/06/23 02:19:36;;;;;;;11.97;7.60;;;18.60;97.50;;;;;;5058994;28;20487;-50
2022/06/23 02:22:10;;;;;;;21.60;9.87;;;18.50;97.50;;;;;;5054628;28;21039;-50
2022/06/23 02:24:45;;;;;;;42.00;9.10;;;18.30;97.70;;;;;;5059005;28;20486;-50
2022/06/23 02:27:19;;;;;;;17.57;7.50;;;18.10;98.00;;;;;;5052968;28;20849;-50
2022/06/23 02:29:53;;;;;;;8.77;7.60;;;18.00;98.20;;;;;;5049520;28;20472;-51
2022/06/23 02:32:27;;;;;;;12.70;8.60;;;18.00;98.20;;;;;;5055062;28;20940;-51
2022/06/23 02:35:01;;;;;;;18.10;8.60;;;17.90;98.20;;;;;;5044542;28;20483;-51
2022/06/23 02:38:01;;;;;;;12.23;6.90;;;17.80;98.40;;;;;;5050015;28;20474;-51
2022/06/23 02:40:33;;;;;;;14.60;8.83;;;17.80;98.50;;;;;;5058980;28;20474;-52
2022/06/23 02:43:04;;;;;;;12.50;8.13;;;17.90;98.50;;;;;;5056930;28;21114;-51
2022/06/23 02:46:00;;;;;;;15.17;8.10;;;18.00;98.10;;;;;;5056053;28;20878;-51
2022/06/23 02:48:43;;;;;;;13.87;7.57;;;18.00;98.00;;;;;;5048287;28;20987;-55
2022/06/23 02:51:31;;;;;;;14.20;7.47;;;18.00;98.00;;;;;;5040764;28;20479;-51
2022/06/23 02:54:22;;;;;;;18.97;10.10;;;17.80;98.30;;;;;;5049234;28;21060;-51
2022/06/23 02:57:17;;;;;;;15.20;8.40;;;17.70;98.80;;;;;;5055398;28;20488;-51
2022/06/23 02:59:49;;;;;;;14.63;7.40;;;17.50;99.10;;;;;;5036937;28;20506;-51
2022/06/23 03:02:22;;;;;;;10.73;7.83;;;17.50;99.20;;;;;;5042533;28;20991;-51
2022/06/23 03:04:56;;;;;;;13.87;8.80;;;17.40;99.50;;;;;;5036453;28;20474;-51
2022/06/23 03:07:27;;;;;;;12.73;7.70;;;17.40;99.80;;;;;;5040891;28;20494;-52
2022/06/23 03:10:03;;;;;;;30.17;8.80;;;17.40;99.80;;;;;;5050224;28;20478;-51
2022/06/23 03:12:37;;;;;;;12.90;7.80;;;17.40;99.90;;;;;;5056196;28;20490;-51
2022/06/23 03:15:10;;;;;;;18.03;9.57;;;17.60;99.80;;;;;;5058303;28;20509;-51
2022/06/23 03:17:41;;;;;;;14.97;9.43;;;17.60;99.60;;;;;;5020465;28;20503;-51
2022/06/23 03:20:15;;;;;;;23.30;8.30;;;17.80;99.70;;;;;;5053069;28;20487;-51
2022/06/23 03:22:48;;;;;;;11.53;8.77;;;17.80;99.60;;;;;;5054613;28;20501;-51
2022/06/23 03:25:22;;;;;;;14.53;8.83;;;17.90;99.40;;;;;;5058382;28;20999;-51
2022/06/23 03:27:54;;;;;;;22.00;8.37;;;18.00;99.50;;;;;;5055708;28;20486;-51
2022/06/23 03:30:28;;;;;;;20.53;10.00;;;18.10;99.60;;;;;;5050407;28;20487;-51
2022/06/23 03:32:59;;;;;;;29.50;10.10;;;18.10;99.40;;;;;;5046242;28;20475;-51
2022/06/23 03:35:35;;;;;;;15.27;9.00;;;18.10;99.40;;;;;;5065034;28;20521;-52
2022/06/23 03:38:07;;;;;;;23.83;11.77;;;18.00;99.70;;;;;;5057135;28;20470;-52
2022/06/23 03:43:40;;;;;;;22.00;9.37;;;18.00;99.90;;;;;;5047377;28;20856;-52
2022/06/23 03:46:19;;;;;;;14.23;8.10;;;18.00;99.90;;;;;;5046120;28;20491;-52
2022/06/23 03:48:51;;;;;;;16.53;8.90;;;18.00;99.90;;;;;;5057641;28;20478;-51
2022/06/23 03:51:24;;;;;;;16.70;9.17;;;18.10;99.90;;;;;;5054756;28;20747;-51
2022/06/23 03:54:01;;;;;;;13.93;9.20;;;18.10;99.90;;;;;;5056637;28;20519;-51
2022/06/23 03:56:31;;;;;;;15.87;9.33;;;18.20;99.90;;;;;;5026813;28;20482;-51
2022/06/23 03:59:03;;;;;;;15.03;11.07;;;18.30;99.70;;;;;;5031309;28;20550;-51
2022/06/23 04:01:36;;;;;;;23.83;10.27;;;18.40;99.70;;;;;;5030958;28;20475;-52
2022/06/23 04:04:05;;;;;;;22.80;11.47;;;18.50;99.70;;;;;;5038902;28;20501;-52
2022/06/23 04:06:36;;;;;;;21.03;8.90;;;18.60;99.70;;;;;;5045195;28;20487;-51
2022/06/23 04:09:11;;;;;;;25.50;11.07;;;18.70;99.70;;;;;;5058336;28;20493;-51
2022/06/23 04:11:55;;;;;;;21.00;9.37;;;18.70;99.60;;;;;;5043754;28;20466;-51
2022/06/23 04:14:49;;;;;;;20.47;9.00;;;18.80;99.70;;;;;;5056672;28;20487;-51
2022/06/23 04:17:22;;;;;;;20.20;9.77;;;18.90;99.90;;;;;;5058907;28;20582;-51
2022/06/23 04:19:52;;;;;;;19.50;9.20;;;18.90;99.80;;;;;;5057242;28;20484;-51
2022/06/23 04:22:27;;;;;;;20.00;10.67;;;19.00;99.90;;;;;;5056995;28;20493;-51
2022/06/23 04:24:59;;;;;;;31.10;12.70;;;19.00;99.80;;;;;;5054779;28;20956;-50
2022/06/23 04:27:28;;;;;;;25.07;11.23;;;19.10;99.80;;;;;;5056647;28;20490;-50
2022/06/23 04:29:58;;;;;;;23.53;12.57;;;19.20;99.80;;;;;;5054850;28;20487;-50
2022/06/23 04:32:28;;;;;;;39.57;11.50;;;19.10;99.90;;;;;;5054105;28;20489;-50
2022/06/23 04:34:57;;;;;;;41.90;11.93;;;19.10;99.90;;;;;;5058037;28;20509;-50
2022/06/23 04:37:37;;;;;;;33.23;11.30;;;19.00;99.90;;;;;;5055850;28;20885;-50
2022/06/23 04:40:14;;;;;;;34.70;11.27;;;19.00;99.90;;;;;;5048805;28;20471;-51
2022/06/23 04:42:48;;;;;;;26.40;10.77;;;19.00;99.90;;;;;;5052736;28;20839;-51
2022/06/23 04:45:35;;;;;;;27.50;12.40;;;19.20;99.90;;;;;;5045577;28;20482;-52
2022/06/23 04:48:07;;;;;;;28.90;13.50;;;19.30;99.90;;;;;;5063087;28;20479;-51
2022/06/23 04:50:41;;;;;;;31.47;11.83;;;19.30;99.90;;;;;;5056417;28;20463;-51
2022/06/23 04:53:29;;;;;;;19.70;11.53;;;19.40;99.90;;;;;;5056932;28;20480;-51
2022/06/23 04:56:18;;;;;;;31.90;11.70;;;19.40;99.90;;;;;;5043432;28;21181;-51
2022/06/23 04:58:51;;;;;;;27.37;12.20;;;19.50;99.90;;;;;;5037956;28;20474;-51
2022/06/23 05:01:22;;;;;;;23.27;13.47;;;19.60;99.90;;;;;;5047253;28;20523;-51
2022/06/23 05:03:53;;;;;;;33.60;11.33;;;19.70;99.90;;;;;;5049557;28;20605;-51
2022/06/23 05:06:29;;;;;;;29.70;12.40;;;19.70;99.90;;;;;;5048999;28;20481;-52
2022/06/23 05:09:03;;;;;;;29.37;12.30;;;19.70;99.90;;;;;;5057708;28;20482;-52
2022/06/23 05:11:35;;;;;;;18.90;10.83;;;19.90;99.90;;;;;;5053618;28;20479;-52
2022/06/23 05:14:06;;;;;;;29.10;13.20;;;19.90;99.90;;;;;;5055592;28;20972;-51
2022/06/23 05:16:41;;;;;;;22.77;12.60;;;20.00;99.90;;;;;;5047718;28;20498;-52
2022/06/23 05:19:10;;;;;;;27.00;13.80;;;20.00;99.90;;;;;;5057452;28;20835;-51
2022/06/23 05:21:41;;;;;;;27.53;14.20;;;20.20;99.90;;;;;;5054209;28;20482;-51
2022/06/23 05:24:15;;;;;;;26.50;15.40;;;20.30;99.90;;;;;;5055313;28;20473;-51
2022/06/23 05:26:46;;;;;;;28.03;13.53;;;20.50;99.90;;;;;;5059578;28;20481;-51
2022/06/23 05:29:17;;;;;;;28.70;14.73;;;20.50;99.90;;;;;;5061868;28;20969;-51
2022/06/23 05:31:47;;;;;;;17.30;12.40;;;20.70;99.90;;;;;;5052277;28;20483;-51
2022/06/23 05:34:18;;;;;;;23.43;13.90;;;20.80;99.90;;;;;;5059628;28;20486;-51
2022/06/23 05:36:49;;;;;;;23.50;14.53;;;20.90;99.90;;;;;;5056792;28;20508;-50
2022/06/23 05:39:22;;;;;;;25.43;15.47;;;21.00;99.90;;;;;;5062108;28;20474;-51
2022/06/23 05:41:53;;;;;;;21.27;13.97;;;21.10;99.90;;;;;;5014286;28;20564;-51
2022/06/23 05:44:24;;;;;;;26.40;15.63;;;21.20;99.90;;;;;;5036047;28;20975;-51
2022/06/23 05:46:53;;;;;;;29.33;15.17;;;21.30;99.90;;;;;;5030628;28;20483;-51
2022/06/23 05:49:23;;;;;;;29.20;16.00;;;21.40;99.90;;;;;;5055737;28;20486;-52
2022/06/23 05:51:54;;;;;;;25.77;15.30;;;21.50;99.90;;;;;;5050856;28;20497;-51
2022/06/23 05:54:28;;;;;;;23.53;15.70;;;21.60;99.90;;;;;;5060051;28;20483;-52
2022/06/23 05:57:00;;;;;;;21.53;15.47;;;21.70;99.90;;;;;;5030077;28;20486;-52
2022/06/23 05:59:32;;;;;;;24.50;15.17;;;21.70;99.90;;;;;;5053639;28;20475;-52
2022/06/23 06:02:04;;;;;;;27.53;16.93;;;21.80;99.90;;;;;;5029902;28;20493;-52
2022/06/23 06:04:35;;;;;;;19.07;13.63;;;21.90;99.90;;;;;;5047246;28;20499;-52
2022/06/23 06:07:04;;;;;;;21.67;14.43;;;21.90;99.90;;;;;;5043419;28;20569;-52
2022/06/23 06:09:37;;;;;;;26.27;16.13;;;21.80;99.90;;;;;;5052190;28;20474;-52
2022/06/23 06:12:07;;;;;;;21.50;15.40;;;21.80;99.90;;;;;;5025874;28;20471;-52
2022/06/23 06:14:39;;;;;;;19.37;13.67;;;21.90;99.90;;;;;;5053345;28;20466;-53
2022/06/23 06:17:06;;;;;;;22.30;14.37;;;22.00;99.90;;;;;;5041325;28;20758;-52
2022/06/23 06:19:34;;;;;;;19.33;13.60;;;22.10;99.90;;;;;;5022369;28;20474;-52
2022/06/23 06:22:14;;;;;;;20.57;14.43;;;22.40;99.90;;;;;;5056922;28;20490;-52
2022/06/23 06:24:45;;;;;;;18.97;13.87;;;22.50;99.90;;;;;;5047869;28;20478;-53
2022/06/23 06:27:13;;;;;;;21.57;12.97;;;22.70;99.90;;;;;;5050829;28;20495;-53
2022/06/23 06:29:44;;;;;;;20.10;11.90;;;22.80;99.90;;;;;;5048961;28;20979;-53
2022/06/23 06:32:27;;;;;;;16.80;11.37;;;22.90;99.90;;;;;;5060851;28;20482;-53
2022/06/23 06:34:59;;;;;;;15.73;9.50;;;23.10;99.90;;;;;;5026930;28;20487;-52
2022/06/23 06:37:31;;;;;;;13.37;8.80;;;23.10;99.80;;;;;;5046842;28;20487;-52
2022/06/23 06:40:03;;;;;;;15.53;8.07;;;23.10;99.50;;;;;;5055604;28;20487;-52
2022/06/23 06:42:33;;;;;;;11.30;9.03;;;23.10;99.90;;;;;;5056688;28;20696;-53
2022/06/23 06:45:04;;;;;;;15.37;9.90;;;23.30;99.90;;;;;;5058616;28;20490;-52
2022/06/23 06:47:34;;;;;;;8.33;7.37;;;23.30;99.80;;;;;;5058066;28;20492;-52
2022/06/23 06:50:06;;;;;;;12.10;8.00;;;23.50;99.90;;;;;;5059478;28;20486;-51
2022/06/23 06:52:33;;;;;;;11.27;7.20;;;23.60;99.00;;;;;;5053680;28;20974;-52
2022/06/23 06:55:05;;;;;;;10.50;6.40;;;23.60;99.10;;;;;;5051404;28;20483;-51
2022/06/23 06:57:37;;;;;;;8.53;4.50;;;23.80;98.70;;;;;;5046613;28;20702;-52
2022/06/23 07:00:08;;;;;;;5.93;4.87;;;23.80;98.30;;;;;;5055651;28;20483;-54
2022/06/23 07:02:38;;;;;;;11.00;5.07;;;23.90;97.60;;;;;;5047717;28;20494;-52
2022/06/23 07:05:18;;;;;;;13.33;4.10;;;23.90;97.10;;;;;;5047093;28;20481;-51
2022/06/23 07:07:58;;;;;;;9.27;3.57;;;23.90;97.20;;;;;;5051032;28;20474;-53
2022/06/23 07:10:33;;;;;;;14.93;3.77;;;23.80;97.10;;;;;;5062321;28;21050;-53
2022/06/23 07:13:04;;;;;;;13.33;4.57;;;23.90;97.00;;;;;;5051478;28;21110;-52
2022/06/23 07:15:35;;;;;;;9.17;4.57;;;24.00;96.80;;;;;;5029489;28;20899;-53
2022/06/23 07:18:07;;;;;;;10.73;6.00;;;24.10;96.90;;;;;;5046114;28;20573;-52
2022/06/23 07:20:42;;;;;;;9.50;4.20;;;24.20;96.30;;;;;;5059742;28;20482;-52
2022/06/23 07:23:17;;;;;;;15.80;4.47;;;24.30;96.70;;;;;;5044372;28;20473;-52
2022/06/23 07:25:50;;;;;;;9.20;5.10;;;24.60;96.40;;;;;;5058804;28;21074;-52
2022/06/23 07:28:32;;;;;;;8.73;4.73;;;24.60;95.20;;;;;;5061458;28;20498;-52
2022/06/23 07:31:05;;;;;;;8.83;4.43;;;24.90;95.30;;;;;;5059578;28;20493;-55
2022/06/23 07:33:40;;;;;;;4.60;3.17;;;25.00;94.60;;;;;;5064594;28;20502;-55
2022/06/23 07:36:12;;;;;;;5.67;4.43;;;25.10;94.30;;;;;;5061261;28;20496;-52
2022/06/23 07:38:50;;;;;;;8.63;4.10;;;25.20;93.90;;;;;;5059029;28;20486;-52
2022/06/23 07:41:23;;;;;;;13.70;4.03;;;25.10;94.00;;;;;;5063440;28;20488;-52
2022/06/23 07:43:55;;;;;;;9.27;4.43;;;25.10;93.70;;;;;;5064020;28;20479;-54
2022/06/23 07:46:22;;;;;;;8.90;4.03;;;25.20;93.90;;;;;;5059030;28;20927;-53
2022/06/23 07:48:49;;;;;;;10.13;4.00;;;25.30;94.20;;;;;;5059136;28;20487;-52
2022/06/23 07:51:17;;;;;;;9.93;3.77;;;25.50;94.10;;;;;;5058499;28;20998;-56
2022/06/23 07:53:47;;;;;;;6.47;3.10;;;25.70;93.30;;;;;;5056878;28;20857;-52
2022/06/23 07:56:15;;;;;;;6.43;3.83;;;25.70;93.40;;;;;;5053891;28;20505;-52
2022/06/23 07:58:46;;;;;;;14.40;4.90;;;26.10;92.60;;;;;;5063329;28;20478;-53
2022/06/23 08:01:18;;;;;;;4.50;4.10;;;26.20;92.30;;;;;;5063116;28;21281;-54
2022/06/23 08:03:53;;;;;;;9.03;3.90;;;26.20;92.30;;;;;;5063218;28;21051;-52
2022/06/23 08:06:21;;;;;;;7.67;4.07;;;26.20;91.90;;;;;;5056247;28;20494;-53
2022/06/23 08:08:51;;;;;;;4.17;2.80;;;26.30;91.60;;;;;;5062518;28;20598;-52
2022/06/23 08:14:09;;;;;;;11.60;5.00;;;26.60;91.00;;;;;;5052092;28;20480;-53
2022/06/23 08:16:50;;;;;;;7.63;3.50;;;26.70;90.80;;;;;;5039571;28;20489;-52
2022/06/23 08:19:27;;;;;;;12.93;4.17;;;26.80;91.30;;;;;;5056971;28;20478;-52
2022/06/23 08:22:03;;;;;;;6.00;3.40;;;27.00;91.70;;;;;;5050480;28;20469;-52
2022/06/23 08:24:32;;;;;;;8.23;3.50;;;27.00;90.60;;;;;;5032188;28;20859;-52
2022/06/23 08:27:01;;;;;;;9.87;4.60;;;26.70;89.20;;;;;;5061432;28;20809;-52
2022/06/23 08:29:32;;;;;;;6.40;3.83;;;26.70;91.20;;;;;;5058660;28;20487;-52
2022/06/23 08:32:00;;;;;;;10.03;3.37;;;27.00;90.30;;;;;;5059597;28;20477;-52
2022/06/23 08:34:28;;;;;;;6.63;3.13;;;27.10;89.60;;;;;;5062650;28;20637;-51
2022/06/23 08:37:00;;;;;;;9.50;4.33;;;26.90;87.90;;;;;;5047614;28;20482;-52
2022/06/23 08:39:31;;;;;;;8.27;3.93;;;27.30;90.60;;;;;;5043499;28;20569;-52
2022/06/23 08:42:06;;;;;;;6.90;3.90;;;27.40;89.70;;;;;;5048734;28;21907;-52
2022/06/23 08:44:42;;;;;;;7.10;3.37;;;27.60;90.30;;;;;;5061824;28;20939;-52
2022/06/23 08:47:15;;;;;;;11.40;3.57;;;28.00;90.20;;;;;;5012971;28;20557;-53
2022/06/23 08:49:48;;;;;;;7.07;3.77;;;28.30;86.50;;;;;;5045908;28;20481;-52
2022/06/23 08:52:21;;;;;;;16.47;4.80;;;28.00;85.60;;;;;;5063825;28;20488;-52
2022/06/23 08:54:55;;;;;;;6.30;3.80;;;27.90;85.90;;;;;;5056494;28;20489;-52
2022/06/23 08:57:31;;;;;;;8.10;3.57;;;27.80;85.60;;;;;;5044728;28;20512;-53
2022/06/23 09:00:05;;;;;;;8.87;3.73;;;27.80;86.80;;;;;;5054423;28;20877;-52
2022/06/23 09:02:36;;;;;;;11.53;3.40;;;27.80;87.20;;;;;;5062906;28;20518;-53
2022/06/23 09:05:09;;;;;;;10.83;4.70;;;27.80;85.60;;;;;;5054615;28;21068;-52
2022/06/23 09:07:47;;;;;;;7.07;3.43;;;28.00;87.00;;;;;;5052696;28;21000;-53
2022/06/23 09:10:26;;;;;;;8.23;3.10;;;27.90;84.60;;;;;;5036284;28;20490;-52
2022/06/23 09:13:02;;;;;;;8.67;3.23;;;28.10;86.30;;;;;;5042379;28;20479;-54
2022/06/23 09:16:04;;;;;;;7.40;3.37;;;28.40;84.90;;;;;;5059980;28;20453;-53
2022/06/23 09:19:06;;;;;;;4.50;2.83;;;28.60;85.40;;;;;;5028807;28;20477;-53
2022/06/23 09:22:09;;;;;;;11.00;4.37;;;28.80;85.30;;;;;;5057047;28;20958;-54
2022/06/23 09:25:02;;;;;;;10.37;3.50;;;29.30;85.30;;;;;;5064840;28;20449;-53
2022/06/23 09:27:39;;;;;;;6.10;3.77;;;29.50;87.00;;;;;;5055266;28;21012;-54
2022/06/23 09:30:09;;;;;;;5.40;3.20;;;29.60;84.40;;;;;;5065959;28;20479;-53
2022/06/23 09:33:05;;;;;;;6.97;3.17;;;29.40;81.90;;;;;;5066628;28;20478;-52
2022/06/23 09:36:02;;;;;;;9.20;3.40;;;29.10;84.70;;;;;;5050728;28;20481;-53
2022/06/23 09:38:54;;;;;;;9.40;3.93;;;29.10;81.30;;;;;;5049509;28;20921;-54
2022/06/23 09:41:37;;;;;;;8.13;4.20;;;29.20;81.10;;;;;;5064119;28;20960;-52
2022/06/23 09:44:22;;;;;;;10.13;3.30;;;29.30;82.30;;;;;;5053856;28;20474;-53
2022/06/23 09:47:09;;;;;;;15.97;4.47;;;29.30;82.20;;;;;;5059732;28;20478;-52
2022/06/23 09:50:13;;;;;;;7.00;3.40;;;29.30;81.80;;;;;;5064565;28;20449;-52
2022/06/23 09:53:04;;;;;;;10.23;3.70;;;29.10;81.50;;;;;;5053096;28;20433;-53
2022/06/23 09:55:54;;;;;;;4.67;3.73;;;29.00;82.30;;;;;;5040947;28;20470;-53
2022/06/23 09:58:56;;;;;;;12.07;3.70;;;29.10;82.90;;;;;;5065939;28;20478;-51
2022/06/23 10:01:30;;;;;;;11.37;3.97;;;29.60;84.00;;;;;;5038880;28;20481;-52
2022/06/23 10:04:14;;;;;;;10.53;3.80;;;29.80;83.00;;;;;;5028418;28;20912;-53
2022/06/23 10:06:53;;;;;;;9.07;3.80;;;30.10;82.50;;;;;;5028373;28;20517;-52
2022/06/23 10:09:32;;;;;;;15.33;6.00;;;30.20;81.70;;;;;;5057164;28;20436;-52
2022/06/23 10:12:20;;;;;;;10.40;3.40;;;30.40;82.80;;;;;;5054960;28;20448;-57
2022/06/23 10:15:02;;;;;;;10.03;3.40;;;31.20;79.10;;;;;;5066365;28;21006;-52
2022/06/23 10:18:01;;;;;;;9.10;4.30;;;31.10;79.70;;;;;;5047623;28;20450;-55
2022/06/23 10:20:50;;;;;;;9.03;3.87;;;30.80;78.00;;;;;;5033236;28;21058;-54
2022/06/23 10:23:31;;;;;;;8.93;3.77;;;30.40;79.20;;;;;;5065676;28;20481;-53
2022/06/23 10:26:17;;;;;;;9.60;4.17;;;30.60;79.90;;;;;;5052146;28;20705;-53
2022/06/23 10:29:02;;;;;;;10.50;4.10;;;30.60;79.10;;;;;;5064047;28;20449;-52
2022/06/23 10:31:46;;;;;;;9.73;3.87;;;30.50;77.70;;;;;;5062560;28;20516;-53
2022/06/23 10:34:30;;;;;;;8.10;3.53;;;30.90;77.20;;;;;;5063796;28;20469;-52
2022/06/23 10:37:23;;;;;;;8.10;3.60;;;31.00;75.30;;;;;;5058909;28;20882;-52
2022/06/23 10:40:19;;;;;;;13.97;4.57;;;30.90;75.90;;;;;;5036918;28;20460;-52
2022/06/23 10:43:14;;;;;;;6.10;3.70;;;30.40;76.00;;;;;;5061599;28;20718;-49
2022/06/23 10:45:48;;;;;;;12.10;3.90;;;30.30;75.40;;;;;;5061914;28;20468;-52
2022/06/23 10:48:47;;;;;;;14.97;4.43;;;30.40;76.50;;;;;;5065284;28;20452;-53
2022/06/23 10:51:49;;;;;;;7.77;3.47;;;30.00;75.00;;;;;;5054516;28;20461;-53
2022/06/23 10:54:49;;;;;;;12.03;4.80;;;30.50;78.70;;;;;;5059907;28;20480;-52
2022/06/23 10:57:40;;;;;;;10.90;3.60;;;30.70;78.40;;;;;;5034197;28;20452;-52
2022/06/23 11:00:11;;;;;;;6.60;3.33;;;31.10;79.70;;;;;;5050443;28;20489;-51
2022/06/23 11:03:25;;;;;;;9.40;4.00;;;31.40;78.00;;;;;;5065176;28;20484;-52
2022/06/23 11:06:11;;;;;;;9.40;3.43;;;31.60;72.80;;;;;;4925273;28;20484;-53
2022/06/23 11:08:56;;;;;;;9.70;3.67;;;31.60;75.40;;;;;;5049816;28;20445;-52
2022/06/23 11:11:48;;;;;;;8.13;3.10;;;31.30;74.10;;;;;;5061147;28;20456;-53
2022/06/23 11:14:26;;;;;;;7.17;2.70;;;30.80;72.40;;;;;;5051582;28;20854;-51
2022/06/23 11:17:02;;;;;;;5.23;3.17;;;30.60;75.30;;;;;;5040354;28;20477;-52
2022/06/23 11:19:41;;;;;;;6.53;3.40;;;30.60;76.10;;;;;;5065977;28;20493;-53
2022/06/23 11:22:24;;;;;;;15.03;3.97;;;30.70;74.20;;;;;;5037078;28;20451;-53
2022/06/23 11:25:05;;;;;;;7.20;3.70;;;30.70;75.60;;;;;;5058749;28;20448;-52
2022/06/23 11:27:43;;;;;;;7.80;3.20;;;31.30;76.30;;;;;;5045795;28;21010;-52
2022/06/23 11:30:22;;;;;;;10.90;3.70;;;31.40;75.40;;;;;;5032351;28;20487;-53
2022/06/23 11:33:08;;;;;;;6.93;2.87;;;31.80;77.40;;;;;;5060003;28;20476;-52
2022/06/23 11:35:49;;;;;;;4.90;2.23;;;31.80;75.90;;;;;;5062126;28;20473;-52
2022/06/23 11:38:30;;;;;;;9.90;3.00;;;31.60;70.80;;;;;;5034791;28;20906;-51
2022/06/23 11:41:14;;;;;;;4.90;2.87;;;31.50;71.80;;;;;;5047181;28;22107;-52
2022/06/23 11:43:55;;;;;;;5.37;3.00;;;31.50;72.50;;;;;;5061490;28;20864;-52
2022/06/23 11:46:30;;;;;;;12.23;3.50;;;31.50;76.60;;;;;;5017860;28;20562;-52
2022/06/23 11:49:24;;;;;;;9.53;3.60;;;32.30;72.60;;;;;;5058404;28;20835;-52
2022/06/23 11:52:07;;;;;;;10.30;3.30;;;32.80;71.30;;;;;;5032615;28;20462;-52
2022/06/23 11:55:05;;;;;;;10.17;4.30;;;32.70;71.80;;;;;;5057049;28;20919;-53
2022/06/23 11:57:51;;;;;;;7.67;2.80;;;32.80;69.90;;;;;;5056868;28;20454;-53
2022/06/23 12:00:23;;;;;;;7.83;3.17;;;32.20;67.50;;;;;;5050836;28;20479;-52
2022/06/23 12:03:07;;;;;;;7.70;2.43;;;32.10;66.20;;;;;;5052819;28;20466;-53
2022/06/23 12:05:42;;;;;;;3.70;2.00;;;31.80;68.90;;;;;;5059604;28;20448;-52
2022/06/23 12:08:24;;;;;;;5.33;2.93;;;32.30;74.20;;;;;;5058259;28;20456;-52
2022/06/23 12:10:51;;;;;;;9.07;2.90;;;32.30;72.70;;;;;;5053959;28;20884;-52
2022/06/23 12:13:18;;;;;;;13.57;3.83;;;32.50;69.20;;;;;;5057075;28;20494;-52
2022/06/23 12:15:49;;;;;;;7.03;3.30;;;32.50;69.70;;;;;;5047535;28;20478;-52
2022/06/23 12:18:30;;;;;;;11.73;2.70;;;32.60;70.90;;;;;;5018857;28;21011;-52
2022/06/23 12:21:06;;;;;;;5.73;2.97;;;32.70;71.00;;;;;;5057976;28;20935;-52
2022/06/23 12:23:38;;;;;;;7.50;2.70;;;33.00;69.00;;;;;;5046397;28;20518;-52
2022/06/23 12:26:10;;;;;;;6.53;3.00;;;33.20;70.40;;;;;;5059988;28;20448;-52
2022/06/23 12:28:42;;;;;;;5.57;3.17;;;33.40;70.90;;;;;;5033733;28;20461;-52
2022/06/23 12:31:21;;;;;;;6.83;2.30;;;33.40;69.80;;;;;;5018967;28;20464;-52
2022/06/23 12:33:57;;;;;;;5.50;2.43;;;33.10;67.50;;;;;;5039849;28;20486;-52
2022/06/23 12:36:30;;;;;;;5.53;2.70;;;32.50;63.50;;;;;;5054488;28;20458;-52
2022/06/23 12:39:01;;;;;;;6.27;2.40;;;32.80;69.40;;;;;;5041974;28;20924;-52
2022/06/23 12:41:34;;;;;;;6.63;2.60;;;32.70;67.10;;;;;;5050189;28;20553;-53
2022/06/23 12:44:21;;;;;;;8.40;2.73;;;32.50;67.40;;;;;;5057889;28;20478;-52
2022/06/23 12:46:57;;;;;;;6.97;2.10;;;32.50;67.40;;;;;;5050409;28;20475;-53
2022/06/23 12:49:41;;;;;;;5.10;2.13;;;32.20;67.20;;;;;;5049167;28;20494;-51
2022/06/23 12:52:24;;;;;;;9.40;3.10;;;32.10;68.40;;;;;;5051487;28;21022;-52
2022/06/23 12:55:12;;;;;;;18.47;3.07;;;31.90;68.10;;;;;;5020242;28;20552;-54
2022/06/23 12:57:59;;;;;;;7.93;2.57;;;31.80;66.60;;;;;;5045443;28;20463;-52
2022/06/23 13:00:46;;;;;;;5.20;2.70;;;31.80;67.80;;;;;;5041829;28;20482;-53
2022/06/23 13:03:20;;;;;;;9.57;3.20;;;31.50;68.90;;;;;;5050299;28;20565;-52
2022/06/23 13:05:51;;;;;;;7.87;3.20;;;31.30;68.20;;;;;;5041486;28;20972;-52
2022/06/23 13:08:23;;;;;;;8.10;2.90;;;31.30;68.60;;;;;;5045144;28;20556;-52
2022/06/23 13:11:21;;;;;;;8.80;2.70;;;31.60;71.50;;;;;;5026160;28;20497;-52
2022/06/23 13:13:53;;;;;;;5.67;2.87;;;32.10;71.50;;;;;;5054425;28;20457;-52
2022/06/23 13:16:26;;;;;;;9.33;3.47;;;32.10;70.30;;;;;;5038295;28;20488;-52
2022/06/23 13:19:00;;;;;;;11.50;3.93;;;32.40;67.40;;;;;;5041506;28;20495;-52
2022/06/23 13:21:33;;;;;;;9.90;3.93;;;32.20;67.10;;;;;;5021309;28;20445;-51
2022/06/23 13:24:03;;;;;;;7.30;2.63;;;32.20;66.90;;;;;;5036954;28;20461;-52
2022/06/23 13:26:35;;;;;;;5.13;2.70;;;32.10;67.30;;;;;;5028288;28;21045;-51
2022/06/23 13:29:06;;;;;;;7.43;2.83;;;32.10;69.90;;;;;;5037589;28;20995;-52
2022/06/23 13:31:42;;;;;;;11.03;3.00;;;32.20;68.60;;;;;;5050445;28;20448;-54